Carmel Valley, CA (93924)

5:18 AM PDT on August 26, 2016 (GMT -0700)
Laureles Grade | | Change Station

Elev 1096 ft 36.55 °N, 121.75 °W | Updated 2 seconds ago

Overcast
Overcast
55.8 °F
Feels Like 55.8 °F
N
0.0
Wind Variable Wind from NE
Gusts 0.2 mph

Today
High -- | Low -- °F
--% Chance of Precip.
Yesterday
High -- | Low -- °F
Precip. -- in
Pressure 29.93 in
Visibility 10.0 miles
Clouds Overcast 1000 ft
Dew Point 39 °F
Humidity 53%
Rainfall 0.00 in
Snow Depth Not available.
6:33 AM 7:42 PM
Waning Crescent, 35% visible
SPECI KMRY 261206Z AUTO 19003KT 10SM OVC010 14/13 A2993 RMK AO2 CIG 007V011 T01440128
Pressure 29.93 in
Visibility 10.0 miles
Clouds Overcast 1000 ft
Dew Point 39 °F
Humidity 53%
Rainfall 0.00 in
Snow Depth Not available.
6:33 AM 7:42 PM
Waning Crescent, 35% visible
SPECI KMRY 261206Z AUTO 19003KT 10SM OVC010 14/13 A2993 RMK AO2 CIG 007V011 T01440128

10-Day Weather Forecast

Almanac

Astronomy

Aug. 26, 2016 Rise Set
Actual Time
Civil Twilight
Nautical Twilight
Astronomical Twilight
Moon
Length of Visible Light
Length of Day
Tomorrow will be .
, % of the Moon is Illuminated

Today's Extremes

State Highs State Lows

Community

WunderPhotos

Upload Photos

1,935,077 photos uploaded!

WunderBlog® & News

Nearby

Air Quality

  Air Quality AQ Index Pollutant
Not available.

Snow Depth

Station Depth Elevation

Earthquake Activity

City Distance Mag. Time & Date
Minimum magnitude displayed is 2.5.

Coastal Water Temperatures

Place Temperature

Stations

Nearby Weather Stations

Station Location Temp. Windchill Dew Point Humidity Wind Precip. Elev Updated Type
                   

Watches & Warnings

There are currently no watches in effect.